sensor_id;sensor_type;location;lat;lon;timestamp;temperature;humidity
12504;DHT22;6316;48.118;-1.690;2023-05-10T00:00:15;13.20;99.90
12504;DHT22;6316;48.118;-1.690;2023-05-10T00:02:40;13.10;99.90
12504;DHT22;6316;48.118;-1.690;2023-05-10T00:05:06;13.10;99.90
12504;DHT22;6316;48.118;-1.690;2023-05-10T00:07:32;13.10;99.90
12504;DHT22;6316;48.118;-1.690;2023-05-10T00:09:58;13.00;99.90
12504;DHT22;6316;48.118;-1.690;2023-05-10T00:12:24;13.00;99.90
12504;DHT22;6316;48.118;-1.690;2023-05-10T00:14:49;13.00;99.90
12504;DHT22;6316;48.118;-1.690;2023-05-10T00:17:15;12.90;99.90
12504;DHT22;6316;48.118;-1.690;2023-05-10T00:19:41;12.90;99.90
12504;DHT22;6316;48.118;-1.690;2023-05-10T00:22:06;12.90;99.90
12504;DHT22;6316;48.118;-1.690;2023-05-10T00:24:32;12.80;99.90
12504;DHT22;6316;48.118;-1.690;2023-05-10T00:26:57;12.80;99.90
12504;DHT22;6316;48.118;-1.690;2023-05-10T00:29:23;12.80;99.90
12504;DHT22;6316;48.118;-1.690;2023-05-10T00:31:49;12.80;99.90
12504;DHT22;6316;48.118;-1.690;2023-05-10T00:34:15;12.70;99.90
12504;DHT22;6316;48.118;-1.690;2023-05-10T00:36:40;12.70;99.90
12504;DHT22;6316;48.118;-1.690;2023-05-10T00:39:06;12.60;99.90
12504;DHT22;6316;48.118;-1.690;2023-05-10T00:41:33;12.60;99.90
12504;DHT22;6316;48.118;-1.690;2023-05-10T00:43:58;12.60;99.90
12504;DHT22;6316;48.118;-1.690;2023-05-10T00:46:24;12.60;99.90
12504;DHT22;6316;48.118;-1.690;2023-05-10T00:48:51;12.50;99.90
12504;DHT22;6316;48.118;-1.690;2023-05-10T00:51:17;12.50;99.90
12504;DHT22;6316;48.118;-1.690;2023-05-10T00:53:44;12.50;99.90
12504;DHT22;6316;48.118;-1.690;2023-05-10T00:56:11;12.50;99.90
12504;DHT22;6316;48.118;-1.690;2023-05-10T00:58:38;12.50;99.90
12504;DHT22;6316;48.118;-1.690;2023-05-10T01:01:04;12.50;99.90
12504;DHT22;6316;48.118;-1.690;2023-05-10T01:03:32;12.50;99.90
12504;DHT22;6316;48.118;-1.690;2023-05-10T01:05:57;12.50;99.90
12504;DHT22;6316;48.118;-1.690;2023-05-10T01:08:24;12.50;99.90
12504;DHT22;6316;48.118;-1.690;2023-05-10T01:10:49;12.50;99.90
12504;DHT22;6316;48.118;-1.690;2023-05-10T01:13:30;12.40;99.90
12504;DHT22;6316;48.118;-1.690;2023-05-10T01:15:59;12.40;99.90
12504;DHT22;6316;48.118;-1.690;2023-05-10T01:18:28;12.40;99.90
12504;DHT22;6316;48.118;-1.690;2023-05-10T01:21:14;12.40;99.90
12504;DHT22;6316;48.118;-1.690;2023-05-10T01:37:52;12.30;99.90
12504;DHT22;6316;48.118;-1.690;2023-05-10T01:43:26;12.20;99.90
12504;DHT22;6316;48.118;-1.690;2023-05-10T01:48:22;12.20;99.90
12504;DHT22;6316;48.118;-1.690;2023-05-10T01:50:50;12.10;99.90
12504;DHT22;6316;48.118;-1.690;2023-05-10T01:53:18;12.10;99.90
12504;DHT22;6316;48.118;-1.690;2023-05-10T01:55:48;12.10;99.90
12504;DHT22;6316;48.118;-1.690;2023-05-10T01:58:21;12.10;99.90
12504;DHT22;6316;48.118;-1.690;2023-05-10T02:00:49;12.00;99.90
12504;DHT22;6316;48.118;-1.690;2023-05-10T02:03:16;12.00;99.90
12504;DHT22;6316;48.118;-1.690;2023-05-10T02:05:44;12.00;99.90
12504;DHT22;6316;48.118;-1.690;2023-05-10T02:08:11;11.90;99.90
12504;DHT22;6316;48.118;-1.690;2023-05-10T02:10:39;11.90;99.90
12504;DHT22;6316;48.118;-1.690;2023-05-10T02:13:07;11.90;99.90
12504;DHT22;6316;48.118;-1.690;2023-05-10T02:15:34;11.90;99.90
12504;DHT22;6316;48.118;-1.690;2023-05-10T02:18:02;11.90;99.90
12504;DHT22;6316;48.118;-1.690;2023-05-10T02:20:30;11.80;99.90
12504;DHT22;6316;48.118;-1.690;2023-05-10T02:22:57;11.80;99.90
12504;DHT22;6316;48.118;-1.690;2023-05-10T02:25:24;11.80;99.90
12504;DHT22;6316;48.118;-1.690;2023-05-10T02:27:51;11.80;99.90
12504;DHT22;6316;48.118;-1.690;2023-05-10T02:30:19;11.80;99.90
12504;DHT22;6316;48.118;-1.690;2023-05-10T02:32:47;11.80;99.90
12504;DHT22;6316;48.118;-1.690;2023-05-10T02:35:14;11.80;99.90
12504;DHT22;6316;48.118;-1.690;2023-05-10T02:37:41;11.80;99.90
12504;DHT22;6316;48.118;-1.690;2023-05-10T02:40:07;11.80;99.90
12504;DHT22;6316;48.118;-1.690;2023-05-10T02:42:36;11.80;99.90
12504;DHT22;6316;48.118;-1.690;2023-05-10T02:45:05;11.80;99.90
12504;DHT22;6316;48.118;-1.690;2023-05-10T02:47:32;11.80;99.90
12504;DHT22;6316;48.118;-1.690;2023-05-10T02:49:58;11.80;99.90
12504;DHT22;6316;48.118;-1.690;2023-05-10T02:52:30;11.80;99.90
12504;DHT22;6316;48.118;-1.690;2023-05-10T02:55:02;11.80;99.90
12504;DHT22;6316;48.118;-1.690;2023-05-10T02:57:33;11.70;99.90
12504;DHT22;6316;48.118;-1.690;2023-05-10T03:00:00;11.70;99.90
12504;DHT22;6316;48.118;-1.690;2023-05-10T03:02:26;11.70;99.90
12504;DHT22;6316;48.118;-1.690;2023-05-10T03:04:52;11.60;99.90
12504;DHT22;6316;48.118;-1.690;2023-05-10T03:07:18;11.60;99.90
12504;DHT22;6316;48.118;-1.690;2023-05-10T03:09:47;11.60;99.90
12504;DHT22;6316;48.118;-1.690;2023-05-10T03:18:07;11.50;99.90
12504;DHT22;6316;48.118;-1.690;2023-05-10T03:20:41;11.50;99.90
12504;DHT22;6316;48.118;-1.690;2023-05-10T03:23:10;11.50;99.90
12504;DHT22;6316;48.118;-1.690;2023-05-10T03:25:37;11.40;99.90
12504;DHT22;6316;48.118;-1.690;2023-05-10T03:28:04;11.40;99.90
12504;DHT22;6316;48.118;-1.690;2023-05-10T03:30:30;11.40;99.90
12504;DHT22;6316;48.118;-1.690;2023-05-10T03:32:57;11.40;99.90
12504;DHT22;6316;48.118;-1.690;2023-05-10T03:35:23;11.40;99.90
12504;DHT22;6316;48.118;-1.690;2023-05-10T03:37:49;11.40;99.90
12504;DHT22;6316;48.118;-1.690;2023-05-10T03:40:15;11.40;99.90
12504;DHT22;6316;48.118;-1.690;2023-05-10T03:42:41;11.40;99.90
12504;DHT22;6316;48.118;-1.690;2023-05-10T03:45:07;11.30;99.90
12504;DHT22;6316;48.118;-1.690;2023-05-10T03:47:33;11.30;99.90
12504;DHT22;6316;48.118;-1.690;2023-05-10T03:49:58;11.40;99.90
12504;DHT22;6316;48.118;-1.690;2023-05-10T03:52:24;11.40;99.90
12504;DHT22;6316;48.118;-1.690;2023-05-10T03:54:50;11.40;99.90
12504;DHT22;6316;48.118;-1.690;2023-05-10T03:57:16;11.50;99.90
12504;DHT22;6316;48.118;-1.690;2023-05-10T03:59:41;11.50;99.90
12504;DHT22;6316;48.118;-1.690;2023-05-10T04:02:07;11.50;99.90
12504;DHT22;6316;48.118;-1.690;2023-05-10T04:04:33;11.50;99.90
12504;DHT22;6316;48.118;-1.690;2023-05-10T04:06:58;11.40;99.90
12504;DHT22;6316;48.118;-1.690;2023-05-10T04:09:24;11.40;99.90
12504;DHT22;6316;48.118;-1.690;2023-05-10T04:11:50;11.40;99.90
12504;DHT22;6316;48.118;-1.690;2023-05-10T04:14:16;11.30;99.90
12504;DHT22;6316;48.118;-1.690;2023-05-10T04:16:42;11.40;99.90
12504;DHT22;6316;48.118;-1.690;2023-05-10T04:19:07;11.40;99.90
12504;DHT22;6316;48.118;-1.690;2023-05-10T04:21:33;11.40;99.90
12504;DHT22;6316;48.118;-1.690;2023-05-10T04:23:58;11.40;99.90
12504;DHT22;6316;48.118;-1.690;2023-05-10T04:26:24;11.40;99.90
12504;DHT22;6316;48.118;-1.690;2023-05-10T04:28:50;11.40;99.90
12504;DHT22;6316;48.118;-1.690;2023-05-10T04:31:16;11.40;99.90
12504;DHT22;6316;48.118;-1.690;2023-05-10T04:33:42;11.30;99.90
12504;DHT22;6316;48.118;-1.690;2023-05-10T04:36:08;11.30;99.90
12504;DHT22;6316;48.118;-1.690;2023-05-10T04:38:33;11.30;99.90
12504;DHT22;6316;48.118;-1.690;2023-05-10T04:41:08;11.30;99.90
12504;DHT22;6316;48.118;-1.690;2023-05-10T04:43:34;11.30;99.90
12504;DHT22;6316;48.118;-1.690;2023-05-10T04:45:59;11.30;99.90
12504;DHT22;6316;48.118;-1.690;2023-05-10T04:48:25;11.30;99.90
12504;DHT22;6316;48.118;-1.690;2023-05-10T04:50:51;11.30;99.90
12504;DHT22;6316;48.118;-1.690;2023-05-10T04:53:16;11.30;99.90
12504;DHT22;6316;48.118;-1.690;2023-05-10T04:55:42;11.30;99.90
12504;DHT22;6316;48.118;-1.690;2023-05-10T04:58:08;11.30;99.90
12504;DHT22;6316;48.118;-1.690;2023-05-10T05:00:33;11.30;99.90
12504;DHT22;6316;48.118;-1.690;2023-05-10T05:02:59;11.40;99.90
12504;DHT22;6316;48.118;-1.690;2023-05-10T05:05:25;11.40;99.90
12504;DHT22;6316;48.118;-1.690;2023-05-10T05:07:50;11.40;99.90
12504;DHT22;6316;48.118;-1.690;2023-05-10T05:10:16;11.40;99.90
12504;DHT22;6316;48.118;-1.690;2023-05-10T05:12:42;11.40;99.90
12504;DHT22;6316;48.118;-1.690;2023-05-10T05:15:08;11.40;99.90
12504;DHT22;6316;48.118;-1.690;2023-05-10T05:17:35;11.50;99.90
12504;DHT22;6316;48.118;-1.690;2023-05-10T05:20:00;11.50;99.90
12504;DHT22;6316;48.118;-1.690;2023-05-10T05:22:26;11.60;99.90
12504;DHT22;6316;48.118;-1.690;2023-05-10T05:24:57;11.70;99.90
12504;DHT22;6316;48.118;-1.690;2023-05-10T05:27:24;11.90;99.90
12504;DHT22;6316;48.118;-1.690;2023-05-10T05:29:55;12.00;99.90
12504;DHT22;6316;48.118;-1.690;2023-05-10T05:32:22;12.10;99.90
12504;DHT22;6316;48.118;-1.690;2023-05-10T05:34:48;12.10;99.90
12504;DHT22;6316;48.118;-1.690;2023-05-10T05:37:18;12.20;99.90
12504;DHT22;6316;48.118;-1.690;2023-05-10T05:39:44;12.40;99.90
12504;DHT22;6316;48.118;-1.690;2023-05-10T05:42:11;12.40;99.90
12504;DHT22;6316;48.118;-1.690;2023-05-10T05:44:37;12.40;99.90
12504;DHT22;6316;48.118;-1.690;2023-05-10T05:47:02;12.50;99.90
12504;DHT22;6316;48.118;-1.690;2023-05-10T05:49:28;12.50;99.90
12504;DHT22;6316;48.118;-1.690;2023-05-10T05:51:54;12.50;99.90
12504;DHT22;6316;48.118;-1.690;2023-05-10T05:54:20;12.50;99.90
12504;DHT22;6316;48.118;-1.690;2023-05-10T05:56:45;12.60;99.90
12504;DHT22;6316;48.118;-1.690;2023-05-10T05:59:11;12.60;99.90
12504;DHT22;6316;48.118;-1.690;2023-05-10T06:01:37;12.60;99.90
12504;DHT22;6316;48.118;-1.690;2023-05-10T06:04:03;12.70;99.90
12504;DHT22;6316;48.118;-1.690;2023-05-10T06:06:28;12.70;99.90
12504;DHT22;6316;48.118;-1.690;2023-05-10T06:08:54;12.80;99.90
12504;DHT22;6316;48.118;-1.690;2023-05-10T06:11:20;12.90;99.90
12504;DHT22;6316;48.118;-1.690;2023-05-10T06:13:47;13.00;99.90
12504;DHT22;6316;48.118;-1.690;2023-05-10T06:16:12;13.10;99.90
12504;DHT22;6316;48.118;-1.690;2023-05-10T06:18:39;13.20;99.90
12504;DHT22;6316;48.118;-1.690;2023-05-10T06:21:04;13.20;99.90
12504;DHT22;6316;48.118;-1.690;2023-05-10T06:23:30;13.30;99.90
12504;DHT22;6316;48.118;-1.690;2023-05-10T06:25:56;13.40;99.90
12504;DHT22;6316;48.118;-1.690;2023-05-10T06:28:21;13.50;99.90
12504;DHT22;6316;48.118;-1.690;2023-05-10T06:30:47;13.50;99.90
12504;DHT22;6316;48.118;-1.690;2023-05-10T06:33:13;13.60;99.90
12504;DHT22;6316;48.118;-1.690;2023-05-10T06:35:38;13.60;99.90
12504;DHT22;6316;48.118;-1.690;2023-05-10T06:38:04;13.70;99.90
12504;DHT22;6316;48.118;-1.690;2023-05-10T06:40:30;13.70;99.90
12504;DHT22;6316;48.118;-1.690;2023-05-10T06:42:55;13.80;99.90
12504;DHT22;6316;48.118;-1.690;2023-05-10T06:45:21;13.90;99.90
12504;DHT22;6316;48.118;-1.690;2023-05-10T06:47:47;14.20;99.90
12504;DHT22;6316;48.118;-1.690;2023-05-10T06:50:12;14.60;99.90
12504;DHT22;6316;48.118;-1.690;2023-05-10T06:52:38;14.80;99.90
12504;DHT22;6316;48.118;-1.690;2023-05-10T06:55:05;14.80;99.90
12504;DHT22;6316;48.118;-1.690;2023-05-10T06:57:31;14.90;99.90
12504;DHT22;6316;48.118;-1.690;2023-05-10T07:00:00;15.00;99.90
12504;DHT22;6316;48.118;-1.690;2023-05-10T07:02:26;15.60;99.90
12504;DHT22;6316;48.118;-1.690;2023-05-10T07:04:51;16.40;99.90
12504;DHT22;6316;48.118;-1.690;2023-05-10T07:07:18;16.80;99.90
12504;DHT22;6316;48.118;-1.690;2023-05-10T07:09:44;17.10;99.90
12504;DHT22;6316;48.118;-1.690;2023-05-10T07:12:10;17.40;99.90
12504;DHT22;6316;48.118;-1.690;2023-05-10T07:14:35;17.50;99.90
12504;DHT22;6316;48.118;-1.690;2023-05-10T07:17:01;17.50;99.90
12504;DHT22;6316;48.118;-1.690;2023-05-10T07:19:27;17.40;99.90
12504;DHT22;6316;48.118;-1.690;2023-05-10T07:21:54;17.20;99.90
12504;DHT22;6316;48.118;-1.690;2023-05-10T07:24:20;17.10;99.90
12504;DHT22;6316;48.118;-1.690;2023-05-10T07:26:46;17.00;99.90
12504;DHT22;6316;48.118;-1.690;2023-05-10T07:29:11;16.80;99.90
12504;DHT22;6316;48.118;-1.690;2023-05-10T07:31:37;16.70;99.90
12504;DHT22;6316;48.118;-1.690;2023-05-10T07:34:03;16.60;99.90
12504;DHT22;6316;48.118;-1.690;2023-05-10T07:36:28;16.50;99.90
12504;DHT22;6316;48.118;-1.690;2023-05-10T07:38:54;16.40;99.90
12504;DHT22;6316;48.118;-1.690;2023-05-10T07:41:20;16.30;99.90
12504;DHT22;6316;48.118;-1.690;2023-05-10T07:43:46;16.30;99.90
12504;DHT22;6316;48.118;-1.690;2023-05-10T07:46:12;16.20;99.90
12504;DHT22;6316;48.118;-1.690;2023-05-10T07:48:37;16.20;99.90
12504;DHT22;6316;48.118;-1.690;2023-05-10T07:51:03;16.20;99.90
12504;DHT22;6316;48.118;-1.690;2023-05-10T07:53:29;16.10;99.90
12504;DHT22;6316;48.118;-1.690;2023-05-10T07:55:57;16.10;99.90
12504;DHT22;6316;48.118;-1.690;2023-05-10T07:58:24;16.10;99.90
12504;DHT22;6316;48.118;-1.690;2023-05-10T08:00:49;16.10;99.90
12504;DHT22;6316;48.118;-1.690;2023-05-10T08:03:15;15.90;99.90
12504;DHT22;6316;48.118;-1.690;2023-05-10T08:05:41;15.80;99.90
12504;DHT22;6316;48.118;-1.690;2023-05-10T08:08:07;15.80;99.90
12504;DHT22;6316;48.118;-1.690;2023-05-10T08:10:32;15.70;99.90
12504;DHT22;6316;48.118;-1.690;2023-05-10T08:12:58;15.60;99.90
12504;DHT22;6316;48.118;-1.690;2023-05-10T08:15:24;15.50;99.90
12504;DHT22;6316;48.118;-1.690;2023-05-10T08:17:51;15.50;99.90
12504;DHT22;6316;48.118;-1.690;2023-05-10T08:20:17;15.50;99.90
12504;DHT22;6316;48.118;-1.690;2023-05-10T08:22:45;15.50;99.90
12504;DHT22;6316;48.118;-1.690;2023-05-10T08:25:11;15.60;99.90
12504;DHT22;6316;48.118;-1.690;2023-05-10T08:27:37;15.70;99.90
12504;DHT22;6316;48.118;-1.690;2023-05-10T08:30:03;15.70;99.90
12504;DHT22;6316;48.118;-1.690;2023-05-10T08:32:28;15.80;99.90
12504;DHT22;6316;48.118;-1.690;2023-05-10T08:34:55;15.70;99.90
12504;DHT22;6316;48.118;-1.690;2023-05-10T08:37:23;15.70;99.90
12504;DHT22;6316;48.118;-1.690;2023-05-10T08:39:48;15.70;99.90
12504;DHT22;6316;48.118;-1.690;2023-05-10T08:42:19;16.00;99.90
12504;DHT22;6316;48.118;-1.690;2023-05-10T08:44:48;16.40;99.90
12504;DHT22;6316;48.118;-1.690;2023-05-10T08:47:16;16.70;99.90
12504;DHT22;6316;48.118;-1.690;2023-05-10T08:49:44;16.90;99.90
12504;DHT22;6316;48.118;-1.690;2023-05-10T08:52:13;16.90;99.90
12504;DHT22;6316;48.118;-1.690;2023-05-10T08:54:41;17.00;99.90
12504;DHT22;6316;48.118;-1.690;2023-05-10T08:57:07;17.10;99.90
12504;DHT22;6316;48.118;-1.690;2023-05-10T08:59:32;17.10;99.90
12504;DHT22;6316;48.118;-1.690;2023-05-10T09:01:58;17.10;99.90
12504;DHT22;6316;48.118;-1.690;2023-05-10T09:04:25;17.00;99.90
12504;DHT22;6316;48.118;-1.690;2023-05-10T09:06:50;16.90;99.90
12504;DHT22;6316;48.118;-1.690;2023-05-10T09:09:17;16.80;99.90
12504;DHT22;6316;48.118;-1.690;2023-05-10T09:11:44;16.80;99.90
12504;DHT22;6316;48.118;-1.690;2023-05-10T09:14:10;16.90;99.90
12504;DHT22;6316;48.118;-1.690;2023-05-10T09:16:36;17.00;99.90
12504;DHT22;6316;48.118;-1.690;2023-05-10T09:19:02;16.90;99.90
12504;DHT22;6316;48.118;-1.690;2023-05-10T09:21:28;16.90;99.90
12504;DHT22;6316;48.118;-1.690;2023-05-10T09:23:55;17.00;99.90
12504;DHT22;6316;48.118;-1.690;2023-05-10T09:26:24;16.90;99.90
12504;DHT22;6316;48.118;-1.690;2023-05-10T09:28:55;17.00;99.90
12504;DHT22;6316;48.118;-1.690;2023-05-10T09:31:21;17.00;99.90
12504;DHT22;6316;48.118;-1.690;2023-05-10T09:33:49;17.00;99.90
12504;DHT22;6316;48.118;-1.690;2023-05-10T09:36:15;17.00;99.90
12504;DHT22;6316;48.118;-1.690;2023-05-10T09:38:48;17.00;99.90
12504;DHT22;6316;48.118;-1.690;2023-05-10T09:41:21;16.90;99.90
12504;DHT22;6316;48.118;-1.690;2023-05-10T09:43:47;16.80;99.90
12504;DHT22;6316;48.118;-1.690;2023-05-10T09:46:13;16.80;99.90
12504;DHT22;6316;48.118;-1.690;2023-05-10T09:48:46;16.80;99.90
12504;DHT22;6316;48.118;-1.690;2023-05-10T09:51:20;16.80;99.90
12504;DHT22;6316;48.118;-1.690;2023-05-10T09:53:45;16.90;99.90
12504;DHT22;6316;48.118;-1.690;2023-05-10T09:56:11;17.20;99.90
12504;DHT22;6316;48.118;-1.690;2023-05-10T09:58:37;17.40;99.90
12504;DHT22;6316;48.118;-1.690;2023-05-10T10:01:11;17.50;99.90
12504;DHT22;6316;48.118;-1.690;2023-05-10T10:03:42;17.60;99.90
12504;DHT22;6316;48.118;-1.690;2023-05-10T10:06:08;17.70;99.90
12504;DHT22;6316;48.118;-1.690;2023-05-10T10:08:34;17.80;99.90
12504;DHT22;6316;48.118;-1.690;2023-05-10T10:11:00;17.90;99.90
12504;DHT22;6316;48.118;-1.690;2023-05-10T10:13:26;18.00;99.90
12504;DHT22;6316;48.118;-1.690;2023-05-10T10:57:56;19.10;99.90
12504;DHT22;6316;48.118;-1.690;2023-05-10T11:00:36;19.10;99.90
12504;DHT22;6316;48.118;-1.690;2023-05-10T11:03:05;19.10;99.90
12504;DHT22;6316;48.118;-1.690;2023-05-10T11:05:46;19.20;99.90
12504;DHT22;6316;48.118;-1.690;2023-05-10T11:08:30;19.20;99.90
12504;DHT22;6316;48.118;-1.690;2023-05-10T11:15:56;18.80;99.90
12504;DHT22;6316;48.118;-1.690;2023-05-10T11:18:24;18.50;99.90
12504;DHT22;6316;48.118;-1.690;2023-05-10T11:20:58;18.30;99.90
12504;DHT22;6316;48.118;-1.690;2023-05-10T11:26:12;17.60;99.90
12504;DHT22;6316;48.118;-1.690;2023-05-10T11:28:42;17.30;99.90
12504;DHT22;6316;48.118;-1.690;2023-05-10T11:31:10;17.10;99.90
12504;DHT22;6316;48.118;-1.690;2023-05-10T11:33:53;17.00;99.90
12504;DHT22;6316;48.118;-1.690;2023-05-10T11:36:21;16.80;99.90
12504;DHT22;6316;48.118;-1.690;2023-05-10T11:38:47;16.70;99.90
12504;DHT22;6316;48.118;-1.690;2023-05-10T11:41:14;16.60;99.90
12504;DHT22;6316;48.118;-1.690;2023-05-10T11:43:41;16.60;99.90
12504;DHT22;6316;48.118;-1.690;2023-05-10T11:46:12;16.70;99.90
12504;DHT22;6316;48.118;-1.690;2023-05-10T11:48:41;16.90;99.90
12504;DHT22;6316;48.118;-1.690;2023-05-10T11:51:08;17.20;99.90
12504;DHT22;6316;48.118;-1.690;2023-05-10T11:53:34;17.40;99.90
12504;DHT22;6316;48.118;-1.690;2023-05-10T11:56:07;17.50;99.90
12504;DHT22;6316;48.118;-1.690;2023-05-10T11:58:33;17.60;99.90
12504;DHT22;6316;48.118;-1.690;2023-05-10T12:01:00;17.40;99.90
12504;DHT22;6316;48.118;-1.690;2023-05-10T12:03:26;17.10;99.90
12504;DHT22;6316;48.118;-1.690;2023-05-10T12:05:52;16.80;99.90
12504;DHT22;6316;48.118;-1.690;2023-05-10T12:08:29;16.60;99.90
12504;DHT22;6316;48.118;-1.690;2023-05-10T12:11:07;16.40;99.90
12504;DHT22;6316;48.118;-1.690;2023-05-10T12:13:36;16.30;99.90
12504;DHT22;6316;48.118;-1.690;2023-05-10T12:16:33;16.30;99.90
12504;DHT22;6316;48.118;-1.690;2023-05-10T12:19:00;16.30;99.90
12504;DHT22;6316;48.118;-1.690;2023-05-10T12:21:27;16.20;99.90
12504;DHT22;6316;48.118;-1.690;2023-05-10T12:23:58;16.20;99.90
12504;DHT22;6316;48.118;-1.690;2023-05-10T12:26:25;16.20;99.90
12504;DHT22;6316;48.118;-1.690;2023-05-10T12:28:53;16.20;99.90
12504;DHT22;6316;48.118;-1.690;2023-05-10T12:31:20;16.10;99.90
12504;DHT22;6316;48.118;-1.690;2023-05-10T12:33:46;16.00;99.90
12504;DHT22;6316;48.118;-1.690;2023-05-10T12:36:15;15.90;99.90
12504;DHT22;6316;48.118;-1.690;2023-05-10T12:38:49;15.90;99.90
12504;DHT22;6316;48.118;-1.690;2023-05-10T12:41:18;15.90;99.90
12504;DHT22;6316;48.118;-1.690;2023-05-10T12:43:44;15.80;99.90
12504;DHT22;6316;48.118;-1.690;2023-05-10T12:46:12;15.90;99.90
12504;DHT22;6316;48.118;-1.690;2023-05-10T12:48:40;15.90;99.90
12504;DHT22;6316;48.118;-1.690;2023-05-10T12:51:06;16.00;99.90
12504;DHT22;6316;48.118;-1.690;2023-05-10T12:53:38;16.00;99.90
12504;DHT22;6316;48.118;-1.690;2023-05-10T12:56:04;16.10;99.90
12504;DHT22;6316;48.118;-1.690;2023-05-10T12:58:30;16.10;99.90
12504;DHT22;6316;48.118;-1.690;2023-05-10T13:00:55;16.30;99.90
12504;DHT22;6316;48.118;-1.690;2023-05-10T13:03:22;16.50;99.90
12504;DHT22;6316;48.118;-1.690;2023-05-10T13:05:47;16.60;99.90
12504;DHT22;6316;48.118;-1.690;2023-05-10T13:08:13;16.80;99.90
12504;DHT22;6316;48.118;-1.690;2023-05-10T13:10:39;17.00;99.90
12504;DHT22;6316;48.118;-1.690;2023-05-10T13:13:05;17.20;99.90
12504;DHT22;6316;48.118;-1.690;2023-05-10T13:15:31;17.30;99.90
12504;DHT22;6316;48.118;-1.690;2023-05-10T13:17:57;17.40;99.90
12504;DHT22;6316;48.118;-1.690;2023-05-10T13:20:23;17.50;99.90
12504;DHT22;6316;48.118;-1.690;2023-05-10T13:22:49;17.60;99.90
12504;DHT22;6316;48.118;-1.690;2023-05-10T13:25:15;17.60;99.90
12504;DHT22;6316;48.118;-1.690;2023-05-10T13:27:40;17.60;99.90
12504;DHT22;6316;48.118;-1.690;2023-05-10T13:30:07;17.60;99.90
12504;DHT22;6316;48.118;-1.690;2023-05-10T13:32:33;17.60;99.90
12504;DHT22;6316;48.118;-1.690;2023-05-10T13:35:00;17.60;99.90
12504;DHT22;6316;48.118;-1.690;2023-05-10T13:37:30;17.60;99.90
12504;DHT22;6316;48.118;-1.690;2023-05-10T13:40:01;17.70;99.90
12504;DHT22;6316;48.118;-1.690;2023-05-10T13:42:26;17.60;99.90
12504;DHT22;6316;48.118;-1.690;2023-05-10T13:44:52;17.50;99.90
12504;DHT22;6316;48.118;-1.690;2023-05-10T13:47:18;17.10;99.90
12504;DHT22;6316;48.118;-1.690;2023-05-10T13:49:43;16.60;99.90
12504;DHT22;6316;48.118;-1.690;2023-05-10T13:52:09;16.20;99.90
12504;DHT22;6316;48.118;-1.690;2023-05-10T13:54:36;15.80;99.90
12504;DHT22;6316;48.118;-1.690;2023-05-10T13:57:02;15.60;99.90
12504;DHT22;6316;48.118;-1.690;2023-05-10T13:59:28;15.40;99.90
12504;DHT22;6316;48.118;-1.690;2023-05-10T14:01:54;15.30;99.90
12504;DHT22;6316;48.118;-1.690;2023-05-10T14:04:20;15.30;99.90
12504;DHT22;6316;48.118;-1.690;2023-05-10T14:06:46;15.20;99.90
12504;DHT22;6316;48.118;-1.690;2023-05-10T14:09:11;15.20;99.90
12504;DHT22;6316;48.118;-1.690;2023-05-10T14:11:38;15.20;99.90
12504;DHT22;6316;48.118;-1.690;2023-05-10T14:14:07;15.30;99.90
12504;DHT22;6316;48.118;-1.690;2023-05-10T14:16:32;15.30;99.90
12504;DHT22;6316;48.118;-1.690;2023-05-10T14:18:58;15.40;99.90
12504;DHT22;6316;48.118;-1.690;2023-05-10T14:21:24;15.50;99.90
12504;DHT22;6316;48.118;-1.690;2023-05-10T14:23:50;15.70;99.90
12504;DHT22;6316;48.118;-1.690;2023-05-10T14:26:15;15.90;99.90
12504;DHT22;6316;48.118;-1.690;2023-05-10T14:28:41;16.10;99.90
12504;DHT22;6316;48.118;-1.690;2023-05-10T14:31:07;16.20;99.90
12504;DHT22;6316;48.118;-1.690;2023-05-10T14:33:32;16.40;99.90
12504;DHT22;6316;48.118;-1.690;2023-05-10T14:35:58;16.40;99.90
12504;DHT22;6316;48.118;-1.690;2023-05-10T14:38:25;16.50;99.90
12504;DHT22;6316;48.118;-1.690;2023-05-10T14:40:51;16.60;99.90
12504;DHT22;6316;48.118;-1.690;2023-05-10T14:43:17;16.60;99.90
12504;DHT22;6316;48.118;-1.690;2023-05-10T14:45:43;16.60;99.90
12504;DHT22;6316;48.118;-1.690;2023-05-10T14:48:08;16.60;99.90
12504;DHT22;6316;48.118;-1.690;2023-05-10T14:50:37;16.70;99.90
12504;DHT22;6316;48.118;-1.690;2023-05-10T14:53:04;16.70;99.90
12504;DHT22;6316;48.118;-1.690;2023-05-10T14:55:29;16.60;99.90
12504;DHT22;6316;48.118;-1.690;2023-05-10T14:57:55;16.60;99.90
12504;DHT22;6316;48.118;-1.690;2023-05-10T15:00:21;16.50;99.90
12504;DHT22;6316;48.118;-1.690;2023-05-10T15:02:47;16.50;99.90
12504;DHT22;6316;48.118;-1.690;2023-05-10T15:05:14;16.50;99.90
12504;DHT22;6316;48.118;-1.690;2023-05-10T15:07:39;16.50;99.90
12504;DHT22;6316;48.118;-1.690;2023-05-10T15:10:06;16.60;99.90
12504;DHT22;6316;48.118;-1.690;2023-05-10T15:12:31;16.60;99.90
12504;DHT22;6316;48.118;-1.690;2023-05-10T15:14:57;16.70;99.90
12504;DHT22;6316;48.118;-1.690;2023-05-10T15:17:23;16.80;99.90
12504;DHT22;6316;48.118;-1.690;2023-05-10T15:19:48;16.90;99.90
12504;DHT22;6316;48.118;-1.690;2023-05-10T15:22:15;16.90;99.90
12504;DHT22;6316;48.118;-1.690;2023-05-10T15:24:40;17.00;99.90
12504;DHT22;6316;48.118;-1.690;2023-05-10T15:27:06;17.00;99.90
12504;DHT22;6316;48.118;-1.690;2023-05-10T15:29:31;17.00;99.90
12504;DHT22;6316;48.118;-1.690;2023-05-10T15:31:57;17.10;99.90
12504;DHT22;6316;48.118;-1.690;2023-05-10T15:34:23;17.20;99.90
12504;DHT22;6316;48.118;-1.690;2023-05-10T15:36:49;17.20;99.90
12504;DHT22;6316;48.118;-1.690;2023-05-10T15:39:14;17.20;99.90
12504;DHT22;6316;48.118;-1.690;2023-05-10T15:41:40;17.10;99.90
12504;DHT22;6316;48.118;-1.690;2023-05-10T15:44:06;17.10;99.90
12504;DHT22;6316;48.118;-1.690;2023-05-10T15:46:32;17.00;99.90
12504;DHT22;6316;48.118;-1.690;2023-05-10T15:48:57;17.10;99.90
12504;DHT22;6316;48.118;-1.690;2023-05-10T15:51:24;17.00;99.90
12504;DHT22;6316;48.118;-1.690;2023-05-10T15:53:50;17.00;99.90
12504;DHT22;6316;48.118;-1.690;2023-05-10T15:56:16;17.00;99.90
12504;DHT22;6316;48.118;-1.690;2023-05-10T15:58:41;17.10;99.90
12504;DHT22;6316;48.118;-1.690;2023-05-10T16:01:09;17.10;99.90
12504;DHT22;6316;48.118;-1.690;2023-05-10T16:03:35;17.20;99.90
12504;DHT22;6316;48.118;-1.690;2023-05-10T16:06:00;17.30;99.90
12504;DHT22;6316;48.118;-1.690;2023-05-10T16:08:27;17.30;99.90
12504;DHT22;6316;48.118;-1.690;2023-05-10T16:10:55;17.40;99.90
12504;DHT22;6316;48.118;-1.690;2023-05-10T16:13:21;17.40;99.90
12504;DHT22;6316;48.118;-1.690;2023-05-10T16:15:47;17.40;99.90
12504;DHT22;6316;48.118;-1.690;2023-05-10T16:18:13;17.40;99.90
12504;DHT22;6316;48.118;-1.690;2023-05-10T16:20:38;17.40;99.90
12504;DHT22;6316;48.118;-1.690;2023-05-10T16:23:06;17.40;99.90
12504;DHT22;6316;48.118;-1.690;2023-05-10T16:25:32;17.40;99.90
12504;DHT22;6316;48.118;-1.690;2023-05-10T16:27:58;17.40;99.90
12504;DHT22;6316;48.118;-1.690;2023-05-10T16:30:24;17.40;99.90
12504;DHT22;6316;48.118;-1.690;2023-05-10T16:32:52;17.30;99.90
12504;DHT22;6316;48.118;-1.690;2023-05-10T16:35:18;17.40;99.90
12504;DHT22;6316;48.118;-1.690;2023-05-10T16:37:43;17.30;99.90
12504;DHT22;6316;48.118;-1.690;2023-05-10T16:40:09;17.30;99.90
12504;DHT22;6316;48.118;-1.690;2023-05-10T16:42:35;17.30;99.90